createdAt,value
2016-12-06T00:01:02.993Z,18.86
2016-12-06T00:02:11.866Z,18.88
2016-12-06T00:03:20.716Z,18.86
2016-12-06T00:04:29.562Z,18.88
2016-12-06T00:05:38.435Z,18.88
2016-12-06T00:06:47.267Z,18.88
2016-12-06T00:07:56.118Z,18.91
2016-12-06T00:09:04.970Z,18.86
2016-12-06T00:10:13.836Z,18.81
2016-12-06T00:11:22.704Z,18.91
2016-12-06T00:12:31.537Z,18.88
2016-12-06T00:13:40.379Z,18.92
2016-12-06T00:14:49.246Z,18.96
2016-12-06T00:15:58.097Z,18.85
2016-12-06T00:17:06.942Z,18.85
2016-12-06T00:18:15.810Z,18.86
2016-12-06T00:19:24.686Z,18.86
2016-12-06T00:20:33.524Z,18.82
2016-12-06T00:21:42.393Z,18.78
2016-12-06T00:22:51.250Z,18.91
2016-12-06T00:24:00.098Z,18.82
2016-12-06T00:25:08.954Z,18.83
2016-12-06T00:26:17.818Z,18.86
2016-12-06T00:27:26.643Z,18.88
2016-12-06T00:28:35.507Z,18.88
2016-12-06T00:29:44.699Z,18.76
2016-12-06T00:30:53.546Z,18.76
2016-12-06T00:32:02.404Z,18.76
2016-12-06T00:33:11.306Z,18.71
2016-12-06T00:34:20.197Z,18.82
2016-12-06T00:35:29.043Z,18.79
2016-12-06T00:36:37.907Z,18.74
2016-12-06T00:37:46.792Z,18.79
2016-12-06T00:38:55.658Z,18.74
2016-12-06T00:40:04.498Z,18.76
2016-12-06T00:41:13.377Z,18.76
2016-12-06T00:42:22.246Z,18.78
2016-12-06T00:43:31.087Z,18.74
2016-12-06T00:44:39.947Z,18.82
2016-12-06T00:45:49.123Z,18.64
2016-12-06T00:46:57.967Z,18.76
2016-12-06T00:48:06.851Z,18.76
2016-12-06T00:49:15.713Z,18.73
2016-12-06T00:50:24.559Z,18.7
2016-12-06T00:51:33.421Z,18.71
2016-12-06T00:52:42.270Z,18.74
2016-12-06T00:53:51.138Z,18.73
2016-12-06T00:55:00.003Z,18.73
2016-12-06T00:56:08.859Z,18.73
2016-12-06T00:57:17.693Z,18.74
2016-12-06T00:58:26.561Z,18.74
2016-12-06T00:59:35.412Z,18.74
2016-12-06T01:00:44.253Z,18.74
2016-12-06T01:01:53.126Z,18.7
2016-12-06T01:03:02.023Z,18.76
2016-12-06T01:04:10.856Z,18.76
2016-12-06T01:05:19.722Z,18.73
2016-12-06T01:06:28.581Z,18.71
2016-12-06T01:07:37.448Z,18.66
2016-12-06T01:08:46.303Z,18.68
2016-12-06T01:09:55.141Z,18.64
2016-12-06T01:11:04.008Z,18.71
2016-12-06T01:12:12.876Z,18.71
2016-12-06T01:13:22.019Z,18.63
2016-12-06T01:14:30.884Z,18.71
2016-12-06T01:15:39.751Z,18.73
2016-12-06T01:16:48.587Z,18.66
2016-12-06T01:17:57.437Z,18.74
2016-12-06T01:19:06.307Z,18.81
2016-12-06T01:20:15.158Z,18.71
2016-12-06T01:21:24.007Z,18.67
2016-12-06T01:22:32.851Z,18.79
2016-12-06T01:23:41.706Z,18.68
2016-12-06T01:24:50.578Z,18.67
2016-12-06T01:25:59.411Z,18.67
2016-12-06T01:27:08.264Z,18.76
2016-12-06T01:28:17.133Z,18.73
2016-12-06T01:29:25.972Z,18.64
2016-12-06T01:30:34.822Z,18.73
2016-12-06T01:31:43.696Z,18.73
2016-12-06T01:32:52.551Z,18.7
2016-12-06T01:34:01.383Z,18.68
2016-12-06T01:35:10.254Z,18.73
2016-12-06T01:36:19.111Z,18.73
2016-12-06T01:37:27.973Z,18.67
2016-12-06T01:38:36.826Z,18.64
2016-12-06T01:39:45.674Z,18.68
2016-12-06T01:40:54.545Z,18.71
2016-12-06T01:42:03.399Z,18.67
2016-12-06T01:43:12.238Z,18.67
2016-12-06T01:44:21.105Z,18.61
2016-12-06T01:45:29.946Z,18.71
2016-12-06T01:46:38.791Z,18.68
2016-12-06T01:47:47.657Z,18.71
2016-12-06T01:48:56.519Z,18.68
2016-12-06T01:50:05.357Z,18.66
2016-12-06T01:51:14.215Z,18.74
2016-12-06T01:52:23.049Z,18.66
2016-12-06T01:53:31.909Z,18.68
2016-12-06T01:54:40.776Z,18.64
2016-12-06T01:55:49.615Z,18.7
2016-12-06T01:56:58.820Z,18.6
2016-12-06T01:58:07.678Z,18.58
2016-12-06T01:59:16.526Z,18.58
2016-12-06T02:00:25.375Z,18.6
2016-12-06T02:01:34.254Z,18.67
2016-12-06T02:02:43.088Z,18.6
2016-12-06T02:03:51.942Z,18.68
2016-12-06T02:05:01.090Z,18.61
2016-12-06T02:06:09.964Z,18.7
2016-12-06T02:07:18.823Z,18.67
2016-12-06T02:08:27.663Z,18.58
2016-12-06T02:09:36.514Z,18.63
2016-12-06T02:10:45.375Z,18.6
2016-12-06T02:11:54.214Z,18.57
2016-12-06T02:13:03.061Z,18.52
2016-12-06T02:14:11.916Z,18.58
2016-12-06T02:15:20.769Z,18.66
2016-12-06T02:16:29.670Z,18.57
2016-12-06T02:17:38.544Z,18.57
2016-12-06T02:18:47.384Z,18.6
2016-12-06T02:19:56.227Z,18.6
2016-12-06T02:21:05.092Z,18.6
2016-12-06T02:22:13.950Z,18.57
2016-12-06T02:23:22.785Z,18.61
2016-12-06T02:24:31.649Z,18.57
2016-12-06T02:25:40.497Z,18.61
2016-12-06T02:26:49.333Z,18.6
2016-12-06T02:27:58.193Z,18.6
2016-12-06T02:29:07.049Z,18.58
2016-12-06T02:30:15.883Z,18.63
2016-12-06T02:31:24.734Z,18.57
2016-12-06T02:32:33.608Z,18.55
2016-12-06T02:33:42.449Z,18.64
2016-12-06T02:34:51.311Z,18.61
2016-12-06T02:36:00.151Z,18.6
2016-12-06T02:37:09.014Z,18.6
2016-12-06T02:38:17.883Z,18.58
2016-12-06T02:39:26.723Z,18.58
2016-12-06T02:40:35.570Z,18.58
2016-12-06T02:41:44.436Z,18.58
2016-12-06T02:42:53.319Z,18.55
2016-12-06T02:44:02.169Z,18.58
2016-12-06T02:45:11.030Z,18.53
2016-12-06T02:46:19.883Z,18.58
2016-12-06T02:47:28.710Z,18.58
2016-12-06T02:48:37.577Z,18.63
2016-12-06T02:49:46.435Z,18.6
2016-12-06T02:50:55.291Z,18.6
2016-12-06T02:52:04.144Z,18.63
2016-12-06T02:53:12.989Z,18.61
2016-12-06T02:54:21.854Z,18.58
2016-12-06T02:55:30.699Z,18.61
2016-12-06T02:56:39.544Z,18.63
2016-12-06T02:57:48.406Z,18.57
2016-12-06T02:58:57.287Z,18.63
2016-12-06T03:00:06.124Z,18.53
2016-12-06T03:01:14.998Z,18.55
2016-12-06T03:02:23.857Z,18.58
2016-12-06T03:03:32.693Z,18.55
2016-12-06T03:04:41.546Z,18.57
2016-12-06T03:05:50.383Z,18.57
2016-12-06T03:06:59.248Z,18.52
2016-12-06T03:08:08.141Z,18.46
2016-12-06T03:09:16.977Z,18.46
2016-12-06T03:10:25.828Z,18.57
2016-12-06T03:11:34.685Z,18.52
2016-12-06T03:12:43.531Z,18.57
2016-12-06T03:13:52.379Z,18.49
2016-12-06T03:15:01.252Z,18.57
2016-12-06T03:16:10.081Z,18.52
2016-12-06T03:17:18.950Z,18.46
2016-12-06T03:18:27.797Z,18.48
2016-12-06T03:19:36.659Z,18.49
2016-12-06T03:20:45.518Z,18.55
2016-12-06T03:21:54.353Z,18.58
2016-12-06T03:23:03.215Z,18.6
2016-12-06T03:24:12.082Z,18.53
2016-12-06T03:25:20.916Z,18.58
2016-12-06T03:26:29.782Z,18.53
2016-12-06T03:27:38.639Z,18.51
2016-12-06T03:28:47.484Z,18.46
2016-12-06T03:29:56.648Z,18.55
2016-12-06T03:31:05.512Z,18.49
2016-12-06T03:32:14.364Z,18.55
2016-12-06T03:33:23.230Z,18.53
2016-12-06T03:34:32.064Z,18.55
2016-12-06T03:35:40.912Z,18.53
2016-12-06T03:36:49.795Z,18.48
2016-12-06T03:37:58.643Z,18.49
2016-12-06T03:39:07.489Z,18.45
2016-12-06T03:40:16.342Z,18.48
2016-12-06T03:41:25.190Z,18.48
2016-12-06T03:42:34.021Z,18.51
2016-12-06T03:43:42.886Z,18.49
2016-12-06T03:44:51.736Z,18.51
2016-12-06T03:46:00.600Z,18.49
2016-12-06T03:47:09.457Z,18.48
2016-12-06T03:48:18.295Z,18.49
2016-12-06T03:49:27.167Z,18.51
2016-12-06T03:50:36.006Z,18.49
2016-12-06T03:51:44.854Z,18.48
2016-12-06T03:52:53.713Z,18.49
2016-12-06T03:54:02.566Z,18.46
2016-12-06T03:55:11.399Z,18.46
2016-12-06T03:56:20.273Z,18.51
2016-12-06T03:57:29.154Z,18.53
2016-12-06T03:58:37.996Z,18.49
2016-12-06T03:59:46.841Z,18.53
2016-12-06T04:00:55.697Z,18.46
2016-12-06T04:02:04.547Z,18.49
2016-12-06T04:03:13.399Z,18.49
2016-12-06T04:04:22.229Z,18.43
2016-12-06T04:05:31.098Z,18.49
2016-12-06T04:06:39.960Z,18.49
2016-12-06T04:07:48.801Z,18.52
2016-12-06T04:08:57.655Z,18.48
2016-12-06T04:10:06.881Z,18.52
2016-12-06T04:11:15.715Z,18.46
2016-12-06T04:12:24.560Z,18.42
2016-12-06T04:13:33.418Z,18.51
2016-12-06T04:14:42.268Z,18.43
2016-12-06T04:15:51.113Z,18.48
2016-12-06T04:17:00.003Z,18.43
2016-12-06T04:18:08.872Z,18.51
2016-12-06T04:19:17.701Z,18.46
2016-12-06T04:20:26.573Z,18.46
2016-12-06T04:21:35.425Z,18.49
2016-12-06T04:22:44.273Z,18.45
2016-12-06T04:23:53.139Z,18.55
2016-12-06T04:25:02.000Z,18.49
2016-12-06T04:26:10.829Z,18.48
2016-12-06T04:27:19.684Z,18.45
2016-12-06T04:28:28.558Z,18.48
2016-12-06T04:29:37.400Z,18.34
2016-12-06T04:30:46.250Z,18.45
2016-12-06T04:31:55.104Z,18.43
2016-12-06T04:33:03.965Z,18.33
2016-12-06T04:34:12.843Z,18.37
2016-12-06T04:35:21.702Z,18.42
2016-12-06T04:36:30.572Z,18.45
2016-12-06T04:37:39.428Z,18.43
2016-12-06T04:38:48.267Z,18.43
2016-12-06T04:39:57.115Z,18.39
2016-12-06T04:41:05.991Z,18.42
2016-12-06T04:42:14.835Z,18.41
2016-12-06T04:43:23.677Z,18.43
2016-12-06T04:44:32.540Z,18.46
2016-12-06T04:45:41.389Z,18.42
2016-12-06T04:46:50.256Z,18.41
2016-12-06T04:47:59.085Z,18.45
2016-12-06T04:49:07.941Z,18.42
2016-12-06T04:50:16.805Z,18.41
2016-12-06T04:51:25.656Z,18.46
2016-12-06T04:52:34.502Z,18.46
2016-12-06T04:53:43.397Z,18.48
2016-12-06T04:54:52.240Z,18.49
2016-12-06T04:56:01.072Z,18.49
2016-12-06T04:57:09.942Z,18.52
2016-12-06T04:58:18.791Z,18.57
2016-12-06T04:59:27.632Z,18.6
2016-12-06T05:00:36.497Z,18.58
2016-12-06T05:01:45.339Z,18.57
2016-12-06T05:02:54.233Z,18.55
2016-12-06T05:04:03.085Z,18.58
2016-12-06T05:05:11.927Z,18.57
2016-12-06T05:06:20.789Z,18.6
2016-12-06T05:07:29.641Z,18.55
2016-12-06T05:08:38.797Z,18.63
2016-12-06T05:09:47.670Z,18.61
2016-12-06T05:10:56.537Z,18.6
2016-12-06T05:12:05.373Z,18.61
2016-12-06T05:13:14.233Z,18.6
2016-12-06T05:14:23.095Z,18.58
2016-12-06T05:15:31.948Z,18.6
2016-12-06T05:16:40.805Z,18.6
2016-12-06T05:17:49.631Z,18.58
2016-12-06T05:18:58.496Z,18.64
2016-12-06T05:20:07.366Z,18.64
2016-12-06T05:21:16.210Z,18.6
2016-12-06T05:22:25.070Z,18.6
2016-12-06T05:23:33.944Z,18.67
2016-12-06T05:24:42.786Z,18.58
2016-12-06T05:25:51.627Z,18.58
2016-12-06T05:27:00.500Z,18.58
2016-12-06T05:28:09.346Z,18.57
2016-12-06T05:29:18.197Z,18.67
2016-12-06T05:30:27.050Z,18.61
2016-12-06T05:31:35.919Z,18.64
2016-12-06T05:32:44.787Z,18.7
2016-12-06T05:33:53.948Z,18.58
2016-12-06T05:35:02.796Z,18.64
2016-12-06T05:36:11.672Z,18.68
2016-12-06T05:37:20.515Z,18.76
2016-12-06T05:38:29.362Z,18.68
2016-12-06T05:39:38.237Z,18.67
2016-12-06T05:40:47.090Z,18.66
2016-12-06T05:41:55.927Z,18.78
2016-12-06T05:43:04.794Z,18.73
2016-12-06T05:44:13.653Z,18.73
2016-12-06T05:45:22.525Z,18.78
2016-12-06T05:46:31.368Z,18.67
2016-12-06T05:47:40.207Z,18.67
2016-12-06T05:48:49.117Z,18.66
2016-12-06T05:49:57.961Z,18.78
2016-12-06T05:51:06.797Z,18.67
2016-12-06T05:52:15.663Z,18.71
2016-12-06T05:53:24.517Z,18.7
2016-12-06T05:54:33.351Z,18.67
2016-12-06T05:55:42.349Z,18.67
2016-12-06T05:56:51.420Z,18.73
2016-12-06T05:58:00.267Z,18.78
2016-12-06T05:59:09.121Z,18.67
2016-12-06T06:00:17.971Z,17.91
2016-12-06T06:01:26.864Z,16.98
2016-12-06T06:02:35.719Z,15.91
2016-12-06T06:03:44.583Z,16.34
2016-12-06T06:04:53.443Z,16.69
2016-12-06T06:06:02.308Z,16.95
2016-12-06T06:07:11.154Z,17.24
2016-12-06T06:08:20.013Z,17.38
2016-12-06T06:09:28.891Z,17.47
2016-12-06T06:10:37.721Z,17.54
2016-12-06T06:11:46.584Z,17.57
2016-12-06T06:12:55.444Z,17.65
2016-12-06T06:14:04.303Z,17.57
2016-12-06T06:15:13.149Z,17.6
2016-12-06T06:16:22.020Z,17.71
2016-12-06T06:17:30.866Z,17.6
2016-12-06T06:18:39.710Z,17.6
2016-12-06T06:19:48.588Z,17.59
2016-12-06T06:20:57.438Z,17.6
2016-12-06T06:22:06.278Z,17.66
2016-12-06T06:23:15.137Z,17.6
2016-12-06T06:24:24.009Z,17.65
2016-12-06T06:25:32.841Z,17.53
2016-12-06T06:26:41.700Z,17.65
2016-12-06T06:27:50.556Z,17.75
2016-12-06T06:28:59.403Z,17.86
2016-12-06T06:30:08.263Z,17.76
2016-12-06T06:31:17.108Z,17.87
2016-12-06T06:32:25.974Z,17.8
2016-12-06T06:33:34.834Z,17.86
2016-12-06T06:34:43.694Z,17.86
2016-12-06T06:35:52.552Z,17.88
2016-12-06T06:37:01.448Z,17.91
2016-12-06T06:38:10.275Z,17.91
2016-12-06T06:39:19.128Z,17.9
2016-12-06T06:40:28.008Z,17.91
2016-12-06T06:41:36.852Z,17.94
2016-12-06T06:42:45.708Z,18.02
2016-12-06T06:43:54.556Z,18.02
2016-12-06T06:45:03.430Z,17.95
2016-12-06T06:46:12.309Z,17.98
2016-12-06T06:47:21.144Z,18
2016-12-06T06:48:29.999Z,18.11
2016-12-06T06:49:38.911Z,18.05
2016-12-06T06:50:47.752Z,18.12
2016-12-06T06:51:56.602Z,18.13
2016-12-06T06:53:05.496Z,18.12
2016-12-06T06:54:14.343Z,18.11
2016-12-06T06:55:23.190Z,18.12
2016-12-06T06:56:32.060Z,18.21
2016-12-06T06:57:40.949Z,18.3
2016-12-06T06:58:49.803Z,18.21
2016-12-06T06:59:58.637Z,18.26
2016-12-06T07:01:07.484Z,18.23
2016-12-06T07:02:16.365Z,18.34
2016-12-06T07:03:25.223Z,18.41
2016-12-06T07:04:34.073Z,18.27
2016-12-06T07:05:42.936Z,18.31
2016-12-06T07:06:51.795Z,18.27
2016-12-06T07:08:00.630Z,18.41
2016-12-06T07:09:09.503Z,18.31
2016-12-06T07:10:18.360Z,18.43
2016-12-06T07:11:27.229Z,18.39
2016-12-06T07:12:36.082Z,18.45
2016-12-06T07:13:44.932Z,18.39
2016-12-06T07:14:53.798Z,18.46
2016-12-06T07:16:02.649Z,18.46
2016-12-06T07:17:11.500Z,18.52
2016-12-06T07:18:20.368Z,18.46
2016-12-06T07:19:29.235Z,18.55
2016-12-06T07:20:38.073Z,18.6
2016-12-06T07:21:47.255Z,18.58
2016-12-06T07:22:56.114Z,18.52
2016-12-06T07:24:04.952Z,18.49
2016-12-06T07:25:13.800Z,18.58
2016-12-06T07:26:22.670Z,18.6
2016-12-06T07:27:31.540Z,18.55
2016-12-06T07:28:40.405Z,18.58
2016-12-06T07:29:49.245Z,18.7
2016-12-06T07:30:58.098Z,18.68
2016-12-06T07:32:06.969Z,18.68
2016-12-06T07:33:15.800Z,18.68
2016-12-06T07:34:24.646Z,18.78
2016-12-06T07:35:33.515Z,18.71
2016-12-06T07:36:42.362Z,18.74
2016-12-06T07:37:51.216Z,18.71
2016-12-06T07:39:00.093Z,18.66
2016-12-06T07:40:08.943Z,18.74
2016-12-06T07:41:17.789Z,18.76
2016-12-06T07:42:26.658Z,18.79
2016-12-06T07:43:35.510Z,18.73
2016-12-06T07:44:44.365Z,18.71
2016-12-06T07:45:53.206Z,18.71
2016-12-06T07:47:02.053Z,18.74
2016-12-06T07:48:10.945Z,18.74
2016-12-06T07:49:19.797Z,18.79
2016-12-06T07:50:28.644Z,18.74
2016-12-06T07:51:37.530Z,18.73
2016-12-06T07:52:46.385Z,18.76
2016-12-06T07:53:55.225Z,18.86
2016-12-06T07:55:04.083Z,18.78
2016-12-06T07:56:12.952Z,18.76
2016-12-06T07:57:21.811Z,18.91
2016-12-06T07:58:30.673Z,18.85
2016-12-06T07:59:39.524Z,18.83
2016-12-06T08:00:48.387Z,18.88
2016-12-06T08:01:57.245Z,18.89
2016-12-06T08:03:06.070Z,18.88
2016-12-06T08:04:14.946Z,18.98
2016-12-06T08:05:23.814Z,18.91
2016-12-06T08:06:32.658Z,18.91
2016-12-06T08:07:41.508Z,18.96
2016-12-06T08:08:50.371Z,18.83
2016-12-06T08:09:59.206Z,18.94
2016-12-06T08:11:08.052Z,18.94
2016-12-06T08:12:16.952Z,18.89
2016-12-06T08:13:25.789Z,18.98
2016-12-06T08:14:34.649Z,18.89
2016-12-06T08:15:43.507Z,18.94
2016-12-06T08:16:52.359Z,18.92
2016-12-06T08:18:01.196Z,18.91
2016-12-06T08:19:10.064Z,18.88
2016-12-06T08:20:18.941Z,18.91
2016-12-06T08:21:27.796Z,18.89
2016-12-06T08:22:36.655Z,18.89
2016-12-06T08:23:45.526Z,18.92
2016-12-06T08:24:54.357Z,18.92
2016-12-06T08:26:03.202Z,18.92
2016-12-06T08:27:12.057Z,18.92
2016-12-06T08:28:20.919Z,18.97
2016-12-06T08:29:29.774Z,18.89
2016-12-06T08:30:38.614Z,18.86
2016-12-06T08:31:47.472Z,18.92
2016-12-06T08:32:56.335Z,18.86
2016-12-06T08:34:05.170Z,18.86
2016-12-06T08:35:14.032Z,18.91
2016-12-06T08:36:22.900Z,18.89
2016-12-06T08:37:31.730Z,18.91
2016-12-06T08:38:40.579Z,18.96
2016-12-06T08:39:49.451Z,18.91
2016-12-06T08:40:58.291Z,18.94
2016-12-06T08:42:07.150Z,18.91
2016-12-06T08:43:15.995Z,18.97
2016-12-06T08:44:24.905Z,18.92
2016-12-06T08:45:33.778Z,18.92
2016-12-06T08:46:42.633Z,18.96
2016-12-06T08:47:51.493Z,18.98
2016-12-06T08:49:00.360Z,18.94
2016-12-06T08:50:09.208Z,18.91
2016-12-06T08:51:18.052Z,18.94
2016-12-06T08:52:26.928Z,18.98
2016-12-06T08:53:35.785Z,19.01
2016-12-06T08:54:44.625Z,19.04
2016-12-06T08:55:53.489Z,18.98
2016-12-06T08:57:02.661Z,19.08
2016-12-06T08:58:11.523Z,19.04
2016-12-06T08:59:20.384Z,19.05
2016-12-06T09:00:29.228Z,19.01
2016-12-06T09:01:38.109Z,18.96
2016-12-06T09:02:46.990Z,19.08
2016-12-06T09:03:55.831Z,19.05
2016-12-06T09:05:04.703Z,19.09
2016-12-06T09:06:13.564Z,19.09
2016-12-06T09:07:22.405Z,19.07
2016-12-06T09:08:31.281Z,19.07
2016-12-06T09:09:40.161Z,19.07
2016-12-06T09:10:49.008Z,19.04
2016-12-06T09:11:57.870Z,19.08
2016-12-06T09:13:06.735Z,19.11
2016-12-06T09:14:15.577Z,19.04
2016-12-06T09:15:24.427Z,19.01
2016-12-06T09:16:33.306Z,19.05
2016-12-06T09:17:42.141Z,19.17
2016-12-06T09:18:50.992Z,19.2
2016-12-06T09:19:59.863Z,19.24
2016-12-06T09:21:08.732Z,19.2
2016-12-06T09:22:17.574Z,19.22
2016-12-06T09:23:26.457Z,19.32
2016-12-06T09:24:35.309Z,19.24
2016-12-06T09:25:44.158Z,19.27
2016-12-06T09:26:53.011Z,19.35
2016-12-06T09:28:01.865Z,19.35
2016-12-06T09:29:10.735Z,19.32
2016-12-06T09:30:19.586Z,19.32
2016-12-06T09:31:28.425Z,19.37
2016-12-06T09:32:37.285Z,19.35
2016-12-06T09:33:46.140Z,19.34
2016-12-06T09:34:54.978Z,19.38
2016-12-06T09:36:03.870Z,19.32
2016-12-06T09:37:12.731Z,19.48
2016-12-06T09:38:21.573Z,19.42
2016-12-06T09:39:30.429Z,19.39
2016-12-06T09:40:39.288Z,19.44
2016-12-06T09:41:48.161Z,19.45
2016-12-06T09:42:57.018Z,19.39
2016-12-06T09:44:05.857Z,19.42
2016-12-06T09:45:14.757Z,19.47
2016-12-06T09:46:23.615Z,19.42
2016-12-06T09:47:32.448Z,19.41
2016-12-06T09:48:41.304Z,19.39
2016-12-06T09:49:50.205Z,19.39
2016-12-06T09:50:59.053Z,19.42
2016-12-06T09:52:07.939Z,19.48
2016-12-06T09:53:16.808Z,19.59
2016-12-06T09:54:25.688Z,19.62
2016-12-06T09:55:34.539Z,19.48
2016-12-06T09:56:43.390Z,19.45
2016-12-06T09:57:52.249Z,19.55
2016-12-06T09:59:01.147Z,19.57
2016-12-06T10:00:09.980Z,19.59
2016-12-06T10:01:18.821Z,19.59
2016-12-06T10:02:27.702Z,19.57
2016-12-06T10:03:36.545Z,19.6
2016-12-06T10:04:45.390Z,19.55
2016-12-06T10:05:54.249Z,19.55
2016-12-06T10:07:03.107Z,19.64
2016-12-06T10:08:11.949Z,19.62
2016-12-06T10:09:20.846Z,19.64
2016-12-06T10:10:29.709Z,19.59
2016-12-06T10:11:38.867Z,19.62
2016-12-06T10:12:47.713Z,19.64
2016-12-06T10:13:56.592Z,19.67
2016-12-06T10:15:05.441Z,19.66
2016-12-06T10:16:14.306Z,19.67
2016-12-06T10:17:23.172Z,19.67
2016-12-06T10:18:32.027Z,19.7
2016-12-06T10:19:40.902Z,19.64
2016-12-06T10:20:49.775Z,19.63
2016-12-06T10:21:58.618Z,19.59
2016-12-06T10:23:07.462Z,19.72
2016-12-06T10:24:16.324Z,19.71
2016-12-06T10:25:25.184Z,19.7
2016-12-06T10:26:34.051Z,19.67
2016-12-06T10:27:42.897Z,19.71
2016-12-06T10:28:52.073Z,19.66
2016-12-06T10:30:00.943Z,19.67
2016-12-06T10:31:09.820Z,19.74
2016-12-06T10:32:18.731Z,19.6
2016-12-06T10:33:27.592Z,19.82
2016-12-06T10:34:36.449Z,19.81
2016-12-06T10:35:45.288Z,19.84
2016-12-06T10:36:54.159Z,19.7
2016-12-06T10:38:03.019Z,19.82
2016-12-06T10:39:11.883Z,19.72
2016-12-06T10:40:20.738Z,19.78
2016-12-06T10:41:29.587Z,19.77
2016-12-06T10:42:38.462Z,19.79
2016-12-06T10:43:47.361Z,19.75
2016-12-06T10:44:56.187Z,19.81
2016-12-06T10:46:05.050Z,19.81
2016-12-06T10:47:13.918Z,19.75
2016-12-06T10:48:22.761Z,19.82
2016-12-06T10:49:31.636Z,19.84
2016-12-06T10:50:40.500Z,19.79
2016-12-06T10:51:49.354Z,19.81
2016-12-06T10:52:58.536Z,19.89
2016-12-06T10:54:07.394Z,19.82
2016-12-06T10:55:16.258Z,19.92
2016-12-06T10:56:25.110Z,19.9
2016-12-06T10:57:33.952Z,19.87
2016-12-06T10:58:42.816Z,19.82
2016-12-06T10:59:51.686Z,19.84
2016-12-06T11:01:00.832Z,19.87
2016-12-06T11:02:09.707Z,19.97
2016-12-06T11:03:18.572Z,19.93
2016-12-06T11:04:27.418Z,19.92
2016-12-06T11:05:36.260Z,19.96
2016-12-06T11:06:45.141Z,20
2016-12-06T11:07:54.011Z,19.89
2016-12-06T11:09:03.202Z,19.75
2016-12-06T11:10:12.047Z,19.64
2016-12-06T11:11:20.907Z,19.17
2016-12-06T11:12:29.775Z,18.57
2016-12-06T11:13:38.611Z,18.09
2016-12-06T11:14:47.459Z,18.05
2016-12-06T11:15:56.332Z,17.76
2016-12-06T11:17:05.167Z,17.68
2016-12-06T11:18:14.013Z,17.57
2016-12-06T11:19:22.903Z,17.38
2016-12-06T11:20:31.755Z,17.1
2016-12-06T11:21:40.600Z,16.98
2016-12-06T11:22:49.443Z,16.99
2016-12-06T11:23:58.278Z,16.87
2016-12-06T11:25:07.145Z,16.79
2016-12-06T11:26:15.988Z,16.68
2016-12-06T11:27:24.826Z,16.5
2016-12-06T11:28:33.696Z,16.55
2016-12-06T11:29:42.530Z,16.43
2016-12-06T11:30:51.359Z,16.24
2016-12-06T11:32:00.225Z,16.08
2016-12-06T11:33:09.079Z,16.17
2016-12-06T11:34:17.933Z,16
2016-12-06T11:35:26.781Z,16.02
2016-12-06T11:36:35.638Z,16.02
2016-12-06T11:37:44.497Z,15.99
2016-12-06T11:38:53.346Z,15.75
2016-12-06T11:40:02.199Z,15.65
2016-12-06T11:41:11.061Z,15.5
2016-12-06T11:42:19.909Z,15.65
2016-12-06T11:43:28.733Z,15.76
2016-12-06T11:44:37.620Z,15.76
2016-12-06T11:45:46.487Z,15.72
2016-12-06T11:46:55.318Z,15.59
2016-12-06T11:48:04.174Z,15.55
2016-12-06T11:49:13.035Z,15.48
2016-12-06T11:50:21.876Z,15.39
2016-12-06T11:51:30.729Z,15.32
2016-12-06T11:52:39.568Z,15.36
2016-12-06T11:53:48.419Z,15.7
2016-12-06T11:54:57.281Z,16.13
2016-12-06T11:56:06.113Z,16.43
2016-12-06T11:57:14.965Z,16.69
2016-12-06T11:58:23.836Z,16.8
2016-12-06T11:59:32.675Z,17.12
2016-12-06T12:00:41.515Z,17.23
2016-12-06T12:01:50.391Z,17.37
2016-12-06T12:02:59.234Z,17.5
2016-12-06T12:04:08.081Z,17.59
2016-12-06T12:05:16.945Z,17.65
2016-12-06T12:06:25.787Z,17.66
2016-12-06T12:07:34.621Z,17.65
2016-12-06T12:08:43.491Z,17.73
2016-12-06T12:09:52.346Z,17.8
2016-12-06T12:11:01.180Z,17.76
2016-12-06T12:12:10.035Z,17.9
2016-12-06T12:13:18.888Z,17.9
2016-12-06T12:14:27.724Z,18.03
2016-12-06T12:15:36.586Z,17.94
2016-12-06T12:16:45.465Z,17.97
2016-12-06T12:17:54.626Z,17.94
2016-12-06T12:19:03.478Z,18.05
2016-12-06T12:20:12.326Z,18.16
2016-12-06T12:21:21.171Z,18.12
2016-12-06T12:22:30.031Z,18.11
2016-12-06T12:23:38.859Z,18.15
2016-12-06T12:24:47.720Z,18.16
2016-12-06T12:25:56.579Z,18.24
2016-12-06T12:27:05.431Z,18.19
2016-12-06T12:28:14.277Z,18.19
2016-12-06T12:29:23.162Z,18.23
2016-12-06T12:30:31.998Z,18.24
2016-12-06T12:31:40.836Z,18.36
2016-12-06T12:32:49.712Z,18.37
2016-12-06T12:33:58.563Z,18.31
2016-12-06T12:35:07.427Z,18.36
2016-12-06T12:36:16.336Z,18.33
2016-12-06T12:37:25.189Z,18.36
2016-12-06T12:38:34.053Z,18.37
2016-12-06T12:39:42.903Z,18.42
2016-12-06T12:40:51.743Z,18.43
2016-12-06T12:42:00.606Z,18.42
2016-12-06T12:43:09.456Z,18.43
2016-12-06T12:44:18.290Z,18.48
2016-12-06T12:45:27.188Z,18.52
2016-12-06T12:46:36.046Z,18.46
2016-12-06T12:47:44.884Z,18.53
2016-12-06T12:48:53.742Z,18.57
2016-12-06T12:50:02.594Z,18.52
2016-12-06T12:51:11.457Z,18.6
2016-12-06T12:52:20.339Z,18.61
2016-12-06T12:53:29.181Z,18.57
2016-12-06T12:54:38.043Z,18.64
2016-12-06T12:55:46.903Z,18.74
2016-12-06T12:56:55.744Z,18.61
2016-12-06T12:58:04.615Z,18.67
2016-12-06T12:59:13.506Z,18.64
2016-12-06T13:00:22.347Z,18.61
2016-12-06T13:01:31.189Z,18.7
2016-12-06T13:02:40.055Z,18.66
2016-12-06T13:03:48.897Z,18.64
2016-12-06T13:04:57.751Z,18.55
2016-12-06T13:06:06.604Z,18.46
2016-12-06T13:07:15.474Z,18.48
2016-12-06T13:08:24.339Z,18.51
2016-12-06T13:09:33.172Z,18.43
2016-12-06T13:10:42.026Z,18.52
2016-12-06T13:11:50.881Z,18.53
2016-12-06T13:12:59.753Z,18.57
2016-12-06T13:14:08.595Z,18.6
2016-12-06T13:15:17.464Z,18.57
2016-12-06T13:16:26.321Z,18.58
2016-12-06T13:17:35.158Z,18.67
2016-12-06T13:18:44.013Z,18.68
2016-12-06T13:19:52.865Z,18.7
2016-12-06T13:21:01.738Z,18.76
2016-12-06T13:22:10.566Z,18.7
2016-12-06T13:23:19.421Z,18.7
2016-12-06T13:24:28.306Z,18.73
2016-12-06T13:25:37.162Z,18.76
2016-12-06T13:26:46.004Z,18.7
2016-12-06T13:27:54.863Z,18.74
2016-12-06T13:29:03.722Z,18.76
2016-12-06T13:30:12.562Z,18.73
2016-12-06T13:31:21.741Z,18.76
2016-12-06T13:32:30.603Z,18.78
2016-12-06T13:33:39.451Z,18.85
2016-12-06T13:34:48.311Z,18.81
2016-12-06T13:35:57.146Z,18.89
2016-12-06T13:37:06.022Z,18.89
2016-12-06T13:38:14.928Z,18.89
2016-12-06T13:39:23.771Z,18.92
2016-12-06T13:40:32.632Z,18.94
2016-12-06T13:41:41.474Z,18.91
2016-12-06T13:42:50.314Z,18.83
2016-12-06T13:43:59.181Z,18.89
2016-12-06T13:45:08.044Z,18.89
2016-12-06T13:46:16.914Z,18.89
2016-12-06T13:47:25.777Z,18.85
2016-12-06T13:48:34.629Z,18.91
2016-12-06T13:49:43.478Z,18.94
2016-12-06T13:50:52.711Z,18.96
2016-12-06T13:52:01.888Z,18.96
2016-12-06T13:53:10.751Z,18.91
2016-12-06T13:54:19.609Z,18.91
2016-12-06T13:55:28.457Z,18.96
2016-12-06T13:56:37.317Z,18.94
2016-12-06T13:57:46.198Z,18.98
2016-12-06T13:58:55.048Z,18.98
2016-12-06T14:00:03.911Z,19.04
2016-12-06T14:01:12.780Z,19.08
2016-12-06T14:02:21.637Z,19.07
2016-12-06T14:03:30.486Z,19.09
2016-12-06T14:04:39.363Z,19.08
2016-12-06T14:05:48.206Z,19
2016-12-06T14:06:57.054Z,19.04
2016-12-06T14:08:05.924Z,19.05
2016-12-06T14:09:14.778Z,19.08
2016-12-06T14:10:23.630Z,19.08
2016-12-06T14:11:32.491Z,19.11
2016-12-06T14:12:41.444Z,19.01
2016-12-06T14:13:50.270Z,19
2016-12-06T14:14:59.128Z,19.11
2016-12-06T14:16:07.997Z,19.09
2016-12-06T14:17:16.834Z,19.19
2016-12-06T14:18:25.681Z,19
2016-12-06T14:19:34.554Z,19.08
2016-12-06T14:20:43.456Z,19.05
2016-12-06T14:21:52.319Z,19.12
2016-12-06T14:23:01.158Z,19.05
2016-12-06T14:24:10.018Z,19.07
2016-12-06T14:25:18.879Z,19.09
2016-12-06T14:26:27.818Z,19.04
2016-12-06T14:27:36.771Z,19.19
2016-12-06T14:28:45.649Z,19.17
2016-12-06T14:29:54.811Z,19.07
2016-12-06T14:31:03.642Z,19.16
2016-12-06T14:32:12.502Z,19.15
2016-12-06T14:33:21.347Z,19.15
2016-12-06T14:34:30.209Z,19.16
2016-12-06T14:35:39.046Z,19.15
2016-12-06T14:36:47.898Z,19.19
2016-12-06T14:37:56.796Z,19.22
2016-12-06T14:39:05.644Z,19.15
2016-12-06T14:40:14.498Z,19.19
2016-12-06T14:41:23.358Z,19.17
2016-12-06T14:42:32.218Z,19.2
2016-12-06T14:43:41.057Z,19.15
2016-12-06T14:44:49.936Z,19.23
2016-12-06T14:45:58.783Z,19.22
2016-12-06T14:47:07.634Z,19.2
2016-12-06T14:48:16.483Z,19.22
2016-12-06T14:49:25.337Z,19.23
2016-12-06T14:50:34.243Z,19.2